sensor_id;sensor_type;location;lat;lon;timestamp;P1;durP1;ratioP1;P2;durP2;ratioP2
43146;SDS011;28752;48.266;7.402;2023-07-02T00:00:17;4.10;;;1.50;;
43146;SDS011;28752;48.266;7.402;2023-07-02T00:02:43;2.78;;;1.30;;
43146;SDS011;28752;48.266;7.402;2023-07-02T00:05:08;3.27;;;1.60;;
43146;SDS011;28752;48.266;7.402;2023-07-02T00:07:34;3.30;;;1.70;;
43146;SDS011;28752;48.266;7.402;2023-07-02T00:10:01;4.22;;;1.70;;
43146;SDS011;28752;48.266;7.402;2023-07-02T00:12:26;4.65;;;1.70;;
43146;SDS011;28752;48.266;7.402;2023-07-02T00:14:52;3.00;;;1.40;;
43146;SDS011;28752;48.266;7.402;2023-07-02T00:17:18;2.97;;;1.20;;
43146;SDS011;28752;48.266;7.402;2023-07-02T00:19:44;3.38;;;1.60;;
43146;SDS011;28752;48.266;7.402;2023-07-02T00:22:11;2.60;;;1.13;;
43146;SDS011;28752;48.266;7.402;2023-07-02T00:24:37;3.80;;;1.85;;
43146;SDS011;28752;48.266;7.402;2023-07-02T00:27:03;3.70;;;1.83;;
43146;SDS011;28752;48.266;7.402;2023-07-02T00:29:28;4.13;;;2.15;;
43146;SDS011;28752;48.266;7.402;2023-07-02T00:31:53;4.63;;;1.93;;
43146;SDS011;28752;48.266;7.402;2023-07-02T00:34:19;4.63;;;1.92;;
43146;SDS011;28752;48.266;7.402;2023-07-02T00:36:45;4.60;;;2.00;;
43146;SDS011;28752;48.266;7.402;2023-07-02T00:39:11;4.35;;;1.88;;
43146;SDS011;28752;48.266;7.402;2023-07-02T00:41:37;4.10;;;1.70;;
43146;SDS011;28752;48.266;7.402;2023-07-02T00:44:03;3.17;;;1.67;;
43146;SDS011;28752;48.266;7.402;2023-07-02T00:46:28;3.83;;;1.80;;
43146;SDS011;28752;48.266;7.402;2023-07-02T00:48:55;4.15;;;1.85;;
43146;SDS011;28752;48.266;7.402;2023-07-02T00:51:22;5.10;;;2.00;;
43146;SDS011;28752;48.266;7.402;2023-07-02T00:53:51;5.18;;;2.00;;
43146;SDS011;28752;48.266;7.402;2023-07-02T00:56:19;5.20;;;1.92;;
43146;SDS011;28752;48.266;7.402;2023-07-02T00:58:45;4.47;;;1.95;;
43146;SDS011;28752;48.266;7.402;2023-07-02T01:01:23;4.38;;;2.25;;
43146;SDS011;28752;48.266;7.402;2023-07-02T01:06:30;3.63;;;1.70;;
43146;SDS011;28752;48.266;7.402;2023-07-02T01:09:00;4.03;;;1.83;;
43146;SDS011;28752;48.266;7.402;2023-07-02T01:11:28;3.80;;;2.08;;
43146;SDS011;28752;48.266;7.402;2023-07-02T01:13:59;5.53;;;2.03;;
43146;SDS011;28752;48.266;7.402;2023-07-02T01:16:27;5.07;;;2.00;;
43146;SDS011;28752;48.266;7.402;2023-07-02T01:18:55;3.90;;;1.92;;
43146;SDS011;28752;48.266;7.402;2023-07-02T01:21:23;5.28;;;2.20;;
43146;SDS011;28752;48.266;7.402;2023-07-02T01:23:50;5.47;;;2.22;;
43146;SDS011;28752;48.266;7.402;2023-07-02T01:26:15;4.35;;;2.00;;
43146;SDS011;28752;48.266;7.402;2023-07-02T01:28:41;5.03;;;2.10;;
43146;SDS011;28752;48.266;7.402;2023-07-02T01:31:06;4.68;;;1.83;;
43146;SDS011;28752;48.266;7.402;2023-07-02T01:33:32;5.60;;;2.20;;
43146;SDS011;28752;48.266;7.402;2023-07-02T01:35:57;4.90;;;2.03;;
43146;SDS011;28752;48.266;7.402;2023-07-02T01:38:23;3.90;;;1.80;;
43146;SDS011;28752;48.266;7.402;2023-07-02T01:40:48;5.60;;;2.37;;
43146;SDS011;28752;48.266;7.402;2023-07-02T01:43:14;4.30;;;2.17;;
43146;SDS011;28752;48.266;7.402;2023-07-02T01:45:40;4.77;;;2.30;;
43146;SDS011;28752;48.266;7.402;2023-07-02T01:48:06;5.30;;;1.90;;
43146;SDS011;28752;48.266;7.402;2023-07-02T01:50:31;3.80;;;1.90;;
43146;SDS011;28752;48.266;7.402;2023-07-02T01:52:57;4.67;;;2.10;;
43146;SDS011;28752;48.266;7.402;2023-07-02T01:55:22;4.70;;;2.10;;
43146;SDS011;28752;48.266;7.402;2023-07-02T01:57:47;5.60;;;2.50;;
43146;SDS011;28752;48.266;7.402;2023-07-02T02:00:13;4.43;;;1.73;;
43146;SDS011;28752;48.266;7.402;2023-07-02T02:02:38;6.05;;;2.22;;
43146;SDS011;28752;48.266;7.402;2023-07-02T02:05:04;6.00;;;2.00;;
43146;SDS011;28752;48.266;7.402;2023-07-02T02:07:29;5.28;;;2.67;;
43146;SDS011;28752;48.266;7.402;2023-07-02T02:09:55;5.67;;;2.13;;
43146;SDS011;28752;48.266;7.402;2023-07-02T02:12:20;5.93;;;2.20;;
43146;SDS011;28752;48.266;7.402;2023-07-02T02:14:45;6.80;;;2.50;;
43146;SDS011;28752;48.266;7.402;2023-07-02T02:17:11;4.90;;;2.00;;
43146;SDS011;28752;48.266;7.402;2023-07-02T02:19:36;4.63;;;2.40;;
43146;SDS011;28752;48.266;7.402;2023-07-02T02:22:01;4.53;;;2.00;;
43146;SDS011;28752;48.266;7.402;2023-07-02T02:24:27;5.57;;;2.10;;
43146;SDS011;28752;48.266;7.402;2023-07-02T02:26:53;5.78;;;2.20;;
43146;SDS011;28752;48.266;7.402;2023-07-02T02:29:18;5.50;;;2.00;;
43146;SDS011;28752;48.266;7.402;2023-07-02T02:31:43;5.87;;;2.40;;
43146;SDS011;28752;48.266;7.402;2023-07-02T02:34:09;7.07;;;2.20;;
43146;SDS011;28752;48.266;7.402;2023-07-02T02:36:34;5.03;;;2.33;;
43146;SDS011;28752;48.266;7.402;2023-07-02T02:39:00;5.43;;;2.40;;
43146;SDS011;28752;48.266;7.402;2023-07-02T02:41:25;5.43;;;2.20;;
43146;SDS011;28752;48.266;7.402;2023-07-02T02:43:50;5.57;;;2.37;;
43146;SDS011;28752;48.266;7.402;2023-07-02T02:46:19;6.20;;;2.77;;
43146;SDS011;28752;48.266;7.402;2023-07-02T02:48:49;5.68;;;2.55;;
43146;SDS011;28752;48.266;7.402;2023-07-02T02:51:15;7.07;;;2.58;;
43146;SDS011;28752;48.266;7.402;2023-07-02T02:53:40;5.05;;;2.70;;
43146;SDS011;28752;48.266;7.402;2023-07-02T02:56:06;9.93;;;4.10;;
43146;SDS011;28752;48.266;7.402;2023-07-02T02:58:31;8.30;;;3.83;;
43146;SDS011;28752;48.266;7.402;2023-07-02T03:00:56;10.33;;;4.23;;
43146;SDS011;28752;48.266;7.402;2023-07-02T03:03:22;11.00;;;5.13;;
43146;SDS011;28752;48.266;7.402;2023-07-02T03:05:49;9.38;;;4.50;;
43146;SDS011;28752;48.266;7.402;2023-07-02T03:08:15;11.50;;;5.05;;
43146;SDS011;28752;48.266;7.402;2023-07-02T03:10:40;10.67;;;4.37;;
43146;SDS011;28752;48.266;7.402;2023-07-02T03:13:06;9.10;;;4.60;;
43146;SDS011;28752;48.266;7.402;2023-07-02T03:15:31;12.17;;;5.90;;
43146;SDS011;28752;48.266;7.402;2023-07-02T03:17:57;13.00;;;4.80;;
43146;SDS011;28752;48.266;7.402;2023-07-02T03:20:22;10.27;;;4.63;;
43146;SDS011;28752;48.266;7.402;2023-07-02T03:22:47;9.63;;;4.80;;
43146;SDS011;28752;48.266;7.402;2023-07-02T03:25:13;14.17;;;6.47;;
43146;SDS011;28752;48.266;7.402;2023-07-02T03:27:38;12.77;;;5.70;;
43146;SDS011;28752;48.266;7.402;2023-07-02T03:30:04;11.53;;;4.97;;
43146;SDS011;28752;48.266;7.402;2023-07-02T03:32:30;12.90;;;5.88;;
43146;SDS011;28752;48.266;7.402;2023-07-02T03:34:55;14.10;;;5.77;;
43146;SDS011;28752;48.266;7.402;2023-07-02T03:37:20;12.27;;;6.80;;
43146;SDS011;28752;48.266;7.402;2023-07-02T03:39:46;13.70;;;6.20;;
43146;SDS011;28752;48.266;7.402;2023-07-02T03:42:11;12.90;;;6.50;;
43146;SDS011;28752;48.266;7.402;2023-07-02T03:44:36;12.45;;;6.07;;
43146;SDS011;28752;48.266;7.402;2023-07-02T03:47:02;13.87;;;6.87;;
43146;SDS011;28752;48.266;7.402;2023-07-02T03:49:27;14.27;;;7.15;;
43146;SDS011;28752;48.266;7.402;2023-07-02T03:51:53;12.77;;;6.22;;
43146;SDS011;28752;48.266;7.402;2023-07-02T03:54:18;18.83;;;6.73;;
43146;SDS011;28752;48.266;7.402;2023-07-02T03:56:43;15.27;;;6.20;;
43146;SDS011;28752;48.266;7.402;2023-07-02T03:59:09;16.40;;;6.60;;
43146;SDS011;28752;48.266;7.402;2023-07-02T04:01:34;14.63;;;7.93;;
43146;SDS011;28752;48.266;7.402;2023-07-02T04:03:59;14.87;;;7.03;;
43146;SDS011;28752;48.266;7.402;2023-07-02T04:06:25;13.00;;;7.23;;
43146;SDS011;28752;48.266;7.402;2023-07-02T04:08:50;14.63;;;6.90;;
43146;SDS011;28752;48.266;7.402;2023-07-02T04:11:15;15.90;;;6.77;;
43146;SDS011;28752;48.266;7.402;2023-07-02T04:13:41;14.80;;;7.23;;
43146;SDS011;28752;48.266;7.402;2023-07-02T04:16:06;16.70;;;7.63;;
43146;SDS011;28752;48.266;7.402;2023-07-02T04:18:32;15.60;;;6.90;;
43146;SDS011;28752;48.266;7.402;2023-07-02T04:20:57;15.98;;;7.05;;
43146;SDS011;28752;48.266;7.402;2023-07-02T04:23:24;16.10;;;8.07;;
43146;SDS011;28752;48.266;7.402;2023-07-02T04:25:49;13.60;;;7.07;;
43146;SDS011;28752;48.266;7.402;2023-07-02T04:28:15;16.93;;;8.00;;
43146;SDS011;28752;48.266;7.402;2023-07-02T04:30:40;15.05;;;7.13;;
43146;SDS011;28752;48.266;7.402;2023-07-02T04:35:32;15.95;;;6.95;;
43146;SDS011;28752;48.266;7.402;2023-07-02T04:37:59;17.25;;;7.95;;
43146;SDS011;28752;48.266;7.402;2023-07-02T04:40:24;15.82;;;7.10;;
43146;SDS011;28752;48.266;7.402;2023-07-02T04:42:50;17.43;;;7.83;;
43146;SDS011;28752;48.266;7.402;2023-07-02T04:45:22;21.55;;;7.68;;
43146;SDS011;28752;48.266;7.402;2023-07-02T04:47:49;19.00;;;8.00;;
43146;SDS011;28752;48.266;7.402;2023-07-02T04:50:15;16.80;;;8.27;;
43146;SDS011;28752;48.266;7.402;2023-07-02T04:52:41;16.25;;;8.05;;
43146;SDS011;28752;48.266;7.402;2023-07-02T04:55:07;17.90;;;8.00;;
43146;SDS011;28752;48.266;7.402;2023-07-02T04:57:32;19.73;;;8.00;;
43146;SDS011;28752;48.266;7.402;2023-07-02T04:59:58;16.13;;;8.50;;
43146;SDS011;28752;48.266;7.402;2023-07-02T05:02:23;15.43;;;7.00;;
43146;SDS011;28752;48.266;7.402;2023-07-02T05:04:48;19.27;;;7.83;;
43146;SDS011;28752;48.266;7.402;2023-07-02T05:07:15;16.73;;;7.57;;
43146;SDS011;28752;48.266;7.402;2023-07-02T05:09:41;16.40;;;7.70;;
43146;SDS011;28752;48.266;7.402;2023-07-02T05:12:06;19.53;;;8.50;;
43146;SDS011;28752;48.266;7.402;2023-07-02T05:14:32;15.82;;;7.35;;
43146;SDS011;28752;48.266;7.402;2023-07-02T05:16:57;20.73;;;8.30;;
43146;SDS011;28752;48.266;7.402;2023-07-02T05:19:22;15.53;;;7.60;;
43146;SDS011;28752;48.266;7.402;2023-07-02T05:21:48;17.00;;;7.53;;
43146;SDS011;28752;48.266;7.402;2023-07-02T05:24:13;16.40;;;8.07;;
43146;SDS011;28752;48.266;7.402;2023-07-02T05:26:38;17.03;;;8.50;;
43146;SDS011;28752;48.266;7.402;2023-07-02T05:29:04;16.33;;;8.17;;
43146;SDS011;28752;48.266;7.402;2023-07-02T05:31:30;18.92;;;8.65;;
43146;SDS011;28752;48.266;7.402;2023-07-02T05:33:55;18.05;;;8.20;;
43146;SDS011;28752;48.266;7.402;2023-07-02T05:36:21;17.92;;;7.47;;
43146;SDS011;28752;48.266;7.402;2023-07-02T05:38:46;17.47;;;8.47;;
43146;SDS011;28752;48.266;7.402;2023-07-02T05:41:17;17.75;;;8.18;;
43146;SDS011;28752;48.266;7.402;2023-07-02T05:43:46;16.25;;;8.27;;
43146;SDS011;28752;48.266;7.402;2023-07-02T05:46:12;16.88;;;7.65;;
43146;SDS011;28752;48.266;7.402;2023-07-02T05:48:39;18.05;;;8.05;;
43146;SDS011;28752;48.266;7.402;2023-07-02T05:51:04;17.33;;;8.35;;
43146;SDS011;28752;48.266;7.402;2023-07-02T05:53:30;19.13;;;8.63;;
43146;SDS011;28752;48.266;7.402;2023-07-02T05:58:21;18.43;;;8.37;;
43146;SDS011;28752;48.266;7.402;2023-07-02T06:03:14;15.50;;;7.35;;
43146;SDS011;28752;48.266;7.402;2023-07-02T06:05:49;16.70;;;8.32;;
43146;SDS011;28752;48.266;7.402;2023-07-02T06:08:15;18.50;;;8.13;;
43146;SDS011;28752;48.266;7.402;2023-07-02T06:13:06;18.40;;;8.63;;
43146;SDS011;28752;48.266;7.402;2023-07-02T06:20:22;15.67;;;8.33;;
43146;SDS011;28752;48.266;7.402;2023-07-02T06:22:47;17.20;;;8.35;;
43146;SDS011;28752;48.266;7.402;2023-07-02T06:25:13;16.50;;;7.78;;
43146;SDS011;28752;48.266;7.402;2023-07-02T06:27:38;16.35;;;8.05;;
43146;SDS011;28752;48.266;7.402;2023-07-02T06:30:04;19.38;;;9.10;;
43146;SDS011;28752;48.266;7.402;2023-07-02T06:32:30;17.27;;;8.60;;
43146;SDS011;28752;48.266;7.402;2023-07-02T06:34:55;17.70;;;8.35;;
43146;SDS011;28752;48.266;7.402;2023-07-02T06:37:20;16.05;;;8.55;;
43146;SDS011;28752;48.266;7.402;2023-07-02T06:39:46;16.95;;;8.68;;
43146;SDS011;28752;48.266;7.402;2023-07-02T06:42:11;16.20;;;8.50;;
43146;SDS011;28752;48.266;7.402;2023-07-02T06:44:36;15.85;;;8.50;;
43146;SDS011;28752;48.266;7.402;2023-07-02T06:47:02;15.88;;;8.88;;
43146;SDS011;28752;48.266;7.402;2023-07-02T06:49:27;18.05;;;9.70;;
43146;SDS011;28752;48.266;7.402;2023-07-02T06:51:52;13.05;;;7.63;;
43146;SDS011;28752;48.266;7.402;2023-07-02T06:54:18;17.75;;;9.15;;
43146;SDS011;28752;48.266;7.402;2023-07-02T06:56:43;16.92;;;9.27;;
43146;SDS011;28752;48.266;7.402;2023-07-02T06:59:08;15.48;;;9.18;;
43146;SDS011;28752;48.266;7.402;2023-07-02T07:01:34;18.08;;;9.85;;
43146;SDS011;28752;48.266;7.402;2023-07-02T07:04:01;16.88;;;9.80;;
43146;SDS011;28752;48.266;7.402;2023-07-02T07:11:17;16.63;;;8.77;;
43146;SDS011;28752;48.266;7.402;2023-07-02T07:16:08;17.63;;;8.65;;
43146;SDS011;28752;48.266;7.402;2023-07-02T07:20:59;18.33;;;9.68;;
43146;SDS011;28752;48.266;7.402;2023-07-02T07:25:50;17.50;;;9.03;;
43146;SDS011;28752;48.266;7.402;2023-07-02T07:30:42;17.15;;;9.13;;
43146;SDS011;28752;48.266;7.402;2023-07-02T07:33:07;17.30;;;8.57;;
43146;SDS011;28752;48.266;7.402;2023-07-02T07:37:58;19.67;;;10.07;;
43146;SDS011;28752;48.266;7.402;2023-07-02T07:47:39;18.37;;;8.87;;
43146;SDS011;28752;48.266;7.402;2023-07-02T07:50:05;19.40;;;9.77;;
43146;SDS011;28752;48.266;7.402;2023-07-02T07:52:41;18.40;;;9.50;;
43146;SDS011;28752;48.266;7.402;2023-07-02T07:55:07;17.85;;;9.73;;
43146;SDS011;28752;48.266;7.402;2023-07-02T07:57:36;17.30;;;9.75;;
43146;SDS011;28752;48.266;7.402;2023-07-02T08:00:02;15.07;;;8.90;;
43146;SDS011;28752;48.266;7.402;2023-07-02T08:02:30;17.25;;;9.57;;
43146;SDS011;28752;48.266;7.402;2023-07-02T08:04:55;16.88;;;10.02;;
43146;SDS011;28752;48.266;7.402;2023-07-02T08:07:21;16.25;;;8.93;;
43146;SDS011;28752;48.266;7.402;2023-07-02T08:09:47;16.13;;;8.80;;
43146;SDS011;28752;48.266;7.402;2023-07-02T08:12:13;15.93;;;8.35;;
43146;SDS011;28752;48.266;7.402;2023-07-02T08:14:38;16.70;;;9.15;;
43146;SDS011;28752;48.266;7.402;2023-07-02T08:17:04;17.52;;;9.57;;
43146;SDS011;28752;48.266;7.402;2023-07-02T08:19:29;15.27;;;8.35;;
43146;SDS011;28752;48.266;7.402;2023-07-02T08:21:54;17.63;;;9.40;;
43146;SDS011;28752;48.266;7.402;2023-07-02T08:24:20;18.60;;;9.45;;
43146;SDS011;28752;48.266;7.402;2023-07-02T08:26:45;16.75;;;9.40;;
43146;SDS011;28752;48.266;7.402;2023-07-02T08:29:11;16.10;;;9.00;;
43146;SDS011;28752;48.266;7.402;2023-07-02T08:34:02;17.93;;;8.50;;
43146;SDS011;28752;48.266;7.402;2023-07-02T08:38:53;18.80;;;9.60;;
43146;SDS011;28752;48.266;7.402;2023-07-02T08:43:45;18.13;;;9.32;;
43146;SDS011;28752;48.266;7.402;2023-07-02T08:51:02;17.52;;;9.25;;
43146;SDS011;28752;48.266;7.402;2023-07-02T08:53:28;15.70;;;8.90;;
43146;SDS011;28752;48.266;7.402;2023-07-02T08:55:58;15.63;;;8.48;;
43146;SDS011;28752;48.266;7.402;2023-07-02T08:58:28;18.13;;;9.45;;
43146;SDS011;28752;48.266;7.402;2023-07-02T09:03:35;16.30;;;9.32;;
43146;SDS011;28752;48.266;7.402;2023-07-02T09:06:04;15.98;;;9.50;;
43146;SDS011;28752;48.266;7.402;2023-07-02T09:08:34;18.98;;;9.35;;
43146;SDS011;28752;48.266;7.402;2023-07-02T09:13:47;16.83;;;8.73;;
43146;SDS011;28752;48.266;7.402;2023-07-02T09:16:21;17.35;;;8.77;;
43146;SDS011;28752;48.266;7.402;2023-07-02T09:19:00;17.17;;;8.73;;
43146;SDS011;28752;48.266;7.402;2023-07-02T09:21:28;18.98;;;9.15;;
43146;SDS011;28752;48.266;7.402;2023-07-02T09:24:20;17.20;;;8.05;;
43146;SDS011;28752;48.266;7.402;2023-07-02T09:26:54;15.52;;;8.73;;
43146;SDS011;28752;48.266;7.402;2023-07-02T09:29:22;15.48;;;8.20;;
43146;SDS011;28752;48.266;7.402;2023-07-02T09:31:49;17.85;;;8.68;;
43146;SDS011;28752;48.266;7.402;2023-07-02T09:36:40;15.98;;;8.00;;
43146;SDS011;28752;48.266;7.402;2023-07-02T09:41:32;15.10;;;8.15;;
43146;SDS011;28752;48.266;7.402;2023-07-02T09:46:25;16.30;;;8.07;;
43146;SDS011;28752;48.266;7.402;2023-07-02T09:53:41;14.97;;;7.40;;
43146;SDS011;28752;48.266;7.402;2023-07-02T10:00:58;16.95;;;8.55;;
43146;SDS011;28752;48.266;7.402;2023-07-02T10:06:05;15.50;;;8.65;;
43146;SDS011;28752;48.266;7.402;2023-07-02T10:11:06;14.98;;;7.85;;
43146;SDS011;28752;48.266;7.402;2023-07-02T10:13:32;16.88;;;8.65;;
43146;SDS011;28752;48.266;7.402;2023-07-02T10:18:27;16.75;;;8.68;;
43146;SDS011;28752;48.266;7.402;2023-07-02T10:23:17;16.13;;;8.80;;
43146;SDS011;28752;48.266;7.402;2023-07-02T10:28:15;14.70;;;7.37;;
43146;SDS011;28752;48.266;7.402;2023-07-02T10:30:46;16.50;;;8.63;;
43146;SDS011;28752;48.266;7.402;2023-07-02T10:35:36;14.27;;;7.43;;
43146;SDS011;28752;48.266;7.402;2023-07-02T10:38:03;14.60;;;7.68;;
43146;SDS011;28752;48.266;7.402;2023-07-02T10:40:31;15.82;;;8.50;;
43146;SDS011;28752;48.266;7.402;2023-07-02T10:42:58;15.95;;;8.63;;
43146;SDS011;28752;48.266;7.402;2023-07-02T10:47:56;16.10;;;8.15;;
43146;SDS011;28752;48.266;7.402;2023-07-02T10:52:48;14.73;;;8.68;;
43146;SDS011;28752;48.266;7.402;2023-07-02T10:55:17;16.10;;;8.50;;
43146;SDS011;28752;48.266;7.402;2023-07-02T10:57:46;16.67;;;8.90;;
43146;SDS011;28752;48.266;7.402;2023-07-02T11:00:13;14.98;;;8.20;;
43146;SDS011;28752;48.266;7.402;2023-07-02T11:05:05;15.30;;;8.10;;
43146;SDS011;28752;48.266;7.402;2023-07-02T11:07:31;16.92;;;9.20;;
43146;SDS011;28752;48.266;7.402;2023-07-02T11:09:59;15.18;;;7.88;;
43146;SDS011;28752;48.266;7.402;2023-07-02T11:14:53;15.23;;;7.35;;
43146;SDS011;28752;48.266;7.402;2023-07-02T11:19:50;13.68;;;7.60;;
43146;SDS011;28752;48.266;7.402;2023-07-02T11:22:16;14.63;;;7.85;;
43146;SDS011;28752;48.266;7.402;2023-07-02T11:27:07;13.05;;;7.15;;
43146;SDS011;28752;48.266;7.402;2023-07-02T11:32:08;15.00;;;7.82;;
43146;SDS011;28752;48.266;7.402;2023-07-02T11:34:34;14.45;;;7.30;;
43146;SDS011;28752;48.266;7.402;2023-07-02T11:39:25;15.70;;;9.18;;
43146;SDS011;28752;48.266;7.402;2023-07-02T11:46:43;12.65;;;6.38;;
43146;SDS011;28752;48.266;7.402;2023-07-02T11:51:35;12.45;;;6.85;;
43146;SDS011;28752;48.266;7.402;2023-07-02T11:54:02;11.95;;;6.65;;
43146;SDS011;28752;48.266;7.402;2023-07-02T11:56:28;13.20;;;7.00;;
43146;SDS011;28752;48.266;7.402;2023-07-02T12:01:19;13.03;;;6.27;;
43146;SDS011;28752;48.266;7.402;2023-07-02T12:06:10;12.25;;;5.80;;
43146;SDS011;28752;48.266;7.402;2023-07-02T12:08:35;12.23;;;6.10;;
43146;SDS011;28752;48.266;7.402;2023-07-02T12:13:26;10.57;;;5.93;;
43146;SDS011;28752;48.266;7.402;2023-07-02T12:18:16;10.90;;;5.90;;
43146;SDS011;28752;48.266;7.402;2023-07-02T12:23:07;13.60;;;5.93;;
43146;SDS011;28752;48.266;7.402;2023-07-02T12:30:23;12.23;;;6.20;;
43146;SDS011;28752;48.266;7.402;2023-07-02T12:35:14;11.43;;;5.70;;
43146;SDS011;28752;48.266;7.402;2023-07-02T12:40:09;12.50;;;5.68;;
43146;SDS011;28752;48.266;7.402;2023-07-02T12:45:00;12.70;;;6.25;;
43146;SDS011;28752;48.266;7.402;2023-07-02T12:49:50;12.23;;;6.00;;
43146;SDS011;28752;48.266;7.402;2023-07-02T12:54:41;11.43;;;5.73;;
43146;SDS011;28752;48.266;7.402;2023-07-02T12:59:31;11.77;;;5.87;;
43146;SDS011;28752;48.266;7.402;2023-07-02T13:04:22;12.83;;;6.57;;
43146;SDS011;28752;48.266;7.402;2023-07-02T13:09:12;11.73;;;6.17;;
43146;SDS011;28752;48.266;7.402;2023-07-02T13:14:03;11.80;;;6.20;;
43146;SDS011;28752;48.266;7.402;2023-07-02T13:18:54;14.02;;;6.55;;
43146;SDS011;28752;48.266;7.402;2023-07-02T13:21:21;12.60;;;6.95;;
43146;SDS011;28752;48.266;7.402;2023-07-02T13:28:37;13.10;;;6.37;;
43146;SDS011;28752;48.266;7.402;2023-07-02T13:33:28;14.10;;;6.67;;
43146;SDS011;28752;48.266;7.402;2023-07-02T13:38:19;12.52;;;6.35;;
